Tiempo atmosférico en la estación meteorológica de Belorado, Burgos (875 m.)



Fecha
DESCASC
Temp. máxima en grados centígrados (hora)
DESCASC
Temp. mínima en grados centígrados (hora)
DESCASC
Temp. media en grados centígrados
DESCASC
Racha de viento máxima en m/sg (hora)
DESCASC
Velocidad máxima media en intervalos de 10 minutos(hora)
DESCASC
Precipitaciones diarias en mm
DESCASC
Precipitaciones de 00:00 a 06:00 en mm
DESCASC
Precipitaciones de 06:00 a 12:00 en mm
DESCASC
Precipitaciones de 12:00 a 18:00 en mm
DESCASC
Precipitaciones de 18:00 a 24:00 en mm
DESCASC
05-04-2020 15.4 (17:00) 5.5 (01:50) 10.4 7.22 (16:20) 5 (16:20) 0 0 0 0 0
04-04-2020 16.6 (17:40) 0.2 (07:50) 8.4 8.89 (17:50) 6.11 (17:10) 0 0 0 0 0
03-04-2020 12.3 (17:20) 1.1 (03:30) 6.7 5.83 (10:50) 3.33 (00:10) 0 0 0 0 0
02-04-2020 9.8 (14:50) 2.5 (00:00) 6.2 6.94 (14:50) 4.72 (14:20) 7.2 5.6 1.5 0 0.1
01-04-2020 8.5 (16:30) 3.1 (00:00) 5.8 8.06 (01:50) 5.56 (01:30) 1.9 0 1.6 0 0.3
31-03-2020 3.9 (18:20) -1.1 (-00:0) 1.4 11.39 (18:10) 7.22 (18:10) 0 0 0 0 0
30-03-2020 4.6 (15:40) -0.2 (00:00) 2.2 8.61 (14:40) 5.28 (01:40) 0.1 0 0 0.1 0
29-03-2020 12.9 (16:40) 1 (00:00) 6.9 8.33 (18:10) 5 (18:10) 0 0 0 0 0
28-03-2020 14.3 (17:10) -0.4 (00:00) 7 6.11 (11:50) 3.33 (23:50) 0 0 0 0 0
27-03-2020 11.4 (16:40) -2 (-00:0) 4.7 8.61 (16:20) 5.28 (16:20) 0 0 0 0 0
26-03-2020 9.2 (15:40) 0.8 (00:00) 5 9.72 (12:10) 6.39 (15:20) 0 0 0 0 0
25-03-2020 15.5 (16:10) 1.4 (00:00) 8.4 6.67 (15:10) 4.44 (18:30) 0 0 0 0 0
24-03-2020 14 (17:10) 5.5 (00:00) 9.8 9.72 (14:20) 6.39 (14:20) 0 0 0 0 0
23-03-2020 13.7 (15:40) 7 (00:00) 10.3 8.89 (14:50) 5.56 (14:20) 0 0 0 0 0
22-03-2020 14.8 (16:50) 3.9 (07:20) 9.4 7.5 (15:10) 4.72 (17:10) 0 0 0 0 0
21-03-2020 11.8 (16:30) 4.7 (00:00) 8.3 4.72 (12:20) 3.33 (19:00) 0 0 0 0 0
20-03-2020 11.5 (16:10) 4.3 (00:00) 7.9 7.22 (14:20) 4.44 (14:20) 0 0 0 0 0
19-03-2020 14 (15:50) 5.6 (00:00) 9.8 8.89 (16:40) 5.83 (16:40) 0.1 0.1 0 0 0
18-03-2020 14 (15:00) 3.7 (00:00) 8.9 5 (16:10) 3.33 (15:10) 0 0 0 0 0
17-03-2020 9.1 (17:00) 5 (00:00) 7.1 8.06 (15:20) 5.28 (14:20) 6.2 3.8 2.4 0 0
16-03-2020 5.1 (23:40) 0.6 (00:00) 2.8 8.61 (20:30) 5.28 (01:50) 42.4 6.9 9 12.6 13.9
15-03-2020 15.1 (16:40) 1.1 (00:00) 8.1 8.61 (16:40) 5.56 (17:00) 10.6 0 0 1.5 9.1
14-03-2020 14.7 (16:30) -0.1 (00:00) 7.3 7.78 (12:50) 3.61 (13:30) 0 0 0 0 0
13-03-2020 8.5 (14:20) 2 (23:59) 5.3 6.67 (07:10) 4.44 (14:30) 0 0 0 0 0
12-03-2020 14.6 (01:20) 7.5 (00:00) 11.1 6.39 (23:10) 4.17 (22:40) 0 0 0 0 0
11-03-2020 24.1 (15:50) 4.5 (00:00) 14.3 9.17 (16:20) 3.33 (16:20) 0 0 0 0 0
10-03-2020 20.9 (16:10) 4.3 (00:00) 12.6 9.72 (10:50) 5.56 (13:20) 0 0 0 0 0
09-03-2020 11.3 (13:40) 4.2 (00:00) 7.8 8.61 (13:50) 5.28 (13:50) 0 0 0 0 0

Gráficas

Temp. máximas Temp. mínimas Temp. medias Precipitaciones Rachas de viento máximas Velocidades máximas media en intervalos de 10 minutos

Datos horarios

Fecha y hora oficial Temperatura (ºC) Velocidad del viento (km/h) Dirección del viento Racha (km/h) Dirección de racha Precipitación (mm) Presión (hPa) Tendencia (hPa) Humedad (%)
2020-04-07 23:00:00 10 8 Este 16 Este 0 -- -- 99
2020-04-07 22:00:00 10 10 Este 18 Este 0 -- -- 99
2020-04-07 21:00:00 10 8 Nordeste 22 Este 0 -- -- 99
2020-04-07 20:00:00 10 13 Este 21 Este 0 -- -- 99
2020-04-07 19:00:00 10.2 15 Este 23 Este 0 -- -- 99
2020-04-07 18:00:00 10.2 15 Este 22 Este 0 -- -- 98
2020-04-07 17:00:00 10.5 12 Este 21 Este 0 -- -- 98
2020-04-07 16:00:00 10.5 13 Este 19 Este 0 -- -- 98
2020-04-07 15:00:00 10.4 12 Este 18 Este 0 -- -- 98
2020-04-07 14:00:00 10.3 11 Este 19 Este 0 -- -- 98
2020-04-07 13:00:00 10.2 7 Este 13 Nordeste 0 -- -- 96
2020-04-07 12:00:00 10.3 5 Nordeste 9 Este 0 -- -- 95
2020-04-07 11:00:00 9.8 5 Este 12 Este 0 -- -- 96
2020-04-07 10:00:00 9.3 5 Este 10 Este 0 -- -- 97
2020-04-07 09:00:00 8.9 0 Calma -- -- 0 -- -- 98
2020-04-07 08:00:00 8.8 0 Calma -- -- 0.1 -- -- 98
2020-04-07 07:00:00 8.9 0 Calma -- -- 0.1 -- -- 98
2020-04-07 06:00:00 8.9 0 Calma -- -- 0 -- -- 98
2020-04-07 05:00:00 9.2 0 Calma -- -- 0 -- -- 98
2020-04-07 04:00:00 9.2 0 Calma -- -- 0 -- -- 98
2020-04-07 03:00:00 9.3 0 Calma -- -- 0 -- -- 98
2020-04-07 02:00:00 9.4 0 Calma 9 Este 0 -- -- 98
2020-04-07 01:00:00 9.7 6 Este 11 Este 0 -- -- 99
2020-04-07 00:00:00 9.6 5 Este 8 Este 0 -- -- 98
2020-04-06 23:00:00 9.6 5 Este 13 Este 0 -- -- 98
2020-04-06 22:00:00 9.6 8 Este 11 Este 0.1 -- -- 97
2020-04-06 21:00:00 9.9 6 Este 14 Norte 0.8 -- -- 96
2020-04-06 20:00:00 10.1 8 Este 20 Este 0.4 -- -- 95
2020-04-06 19:00:00 10.7 13 Este 25 Este 0 -- -- 92
2020-04-06 18:00:00 10.8 16 Este 24 Este 0 -- -- 92
2020-04-06 17:00:00 10.6 15 Este 23 Este 0.8 -- -- 92
2020-04-06 16:00:00 10.7 15 Este 23 Este 0 -- -- 91
2020-04-06 15:00:00 9.8 14 Este 22 Este 0 -- -- 98
2020-04-06 14:00:00 9.1 13 Este 23 Este 0 -- -- 99
2020-04-06 13:00:00 8.8 15 Este 24 Este 0 -- -- 99
2020-04-06 12:00:00 8.5 18 Este 26 Este 0 -- -- 99
2020-04-06 11:00:00 8.2 15 Este 22 Este 0 -- -- 99
2020-04-06 10:00:00 7.9 16 Este 22 Este 0 -- -- 99
2020-04-06 09:00:00 7.9 11 Este 17 Este 0 -- -- 99
2020-04-06 08:00:00 8 8 Este 17 Este 0 -- -- 99
2020-04-06 07:00:00 8 9 Este 17 Este 0 -- -- 99
2020-04-06 06:00:00 8.2 8 Este 18 Nordeste 0 -- -- 99
2020-04-06 05:00:00 8.5 9 Este 15 Este 0.1 -- -- 96
2020-04-06 04:00:00 8.8 12 Este 18 Este 0.3 -- -- 96
2020-04-06 03:00:00 9.2 8 Este 13 Este 0.6 -- -- 92
2020-04-06 02:00:00 10.4 0 Calma 2 Este 1.2 -- -- 88
2020-04-06 01:00:00 10.8 0 Calma 3 Sur 0 -- -- 83
2020-04-06 00:00:00 10.8 0 Calma 5 Norte 0 -- -- 82
2020-04-05 23:00:00 11.1 2 Este 5 Este 0 -- -- 79
2020-04-05 22:00:00 12 0 Calma 5 Noroeste 0 -- -- 75
2020-04-05 21:00:00 12.6 3 Oeste 15 Este 0 -- -- 71
2020-04-05 20:00:00 12.8 13 Este 20 Este 0 -- -- 65
2020-04-05 19:00:00 13.8 14 Este 22 Este 0 -- -- 63
2020-04-05 18:00:00 14.3 14 Este 24 Este 0 -- -- 60
2020-04-05 17:00:00 14.8 14 Nordeste 26 Este 0 -- -- 58
2020-04-05 16:00:00 14.7 16 Este 24 Este 0 -- -- 61
2020-04-05 15:00:00 13.7 16 Este 24 Este 0 -- -- 65
2020-04-05 14:00:00 13.4 15 Este 25 Este 0 -- -- 68
2020-04-05 13:00:00 12 13 Este 19 Este 0 -- -- 74
2020-04-05 12:00:00 9.2 9 Este 17 Este 0 -- -- 87
2020-04-05 11:00:00 6.8 7 Este 12 Nordeste 0 -- -- 95
2020-04-05 10:00:00 6.1 4 Nordeste 12 Este 0 -- -- 97
2020-04-05 09:00:00 5.9 0 Calma 8 Norte 0 -- -- 97
2020-04-05 08:00:00 6 3 Este 8 Sur 0 -- -- 96
2020-04-05 07:00:00 6.1 2 Este 10 Sur 0 -- -- 95
2020-04-05 06:00:00 6.2 7 Este 16 Oeste 0 -- -- 94
2020-04-05 05:00:00 6.9 2 Nordeste 24 Sur 0 -- -- 88
2020-04-05 04:00:00 8.3 9 Sudeste 25 Este 0 -- -- 77
2020-04-05 03:00:00 7 3 Norte 15 Norte 0 -- -- 76
2020-04-05 02:00:00 6.5 7 Este 12 Este 0 -- -- 80
2020-04-05 01:00:00 6.9 2 Nordeste 12 Este 0 -- -- 74
2020-04-05 00:00:00 9.4 3 Sudoeste 9 Sur 0 -- -- 60
2020-04-04 23:00:00 9.2 0 Calma 7 Sur 0 -- -- 66
2020-04-04 22:00:00 9.8 0 Calma 9 Sur 0 -- -- 68
2020-04-04 21:00:00 11.3 0 Calma 7 Oeste 0 -- -- 62
2020-04-04 20:00:00 13.7 0 Calma 26 Nordeste 0 -- -- 53
2020-04-04 19:00:00 14.5 17 Este 28 Este 0 -- -- 49
2020-04-04 18:00:00 16 18 Este 32 Este 0 -- -- 48
2020-04-04 17:00:00 16.1 19 Este 31 Este 0 -- -- 51
2020-04-04 16:00:00 15.8 19 Este 29 Este 0 -- -- 53
2020-04-04 15:00:00 14.8 13 Este 24 Este 0 -- -- 57
2020-04-04 14:00:00 12.7 13 Este 22 Este 0 -- -- 60
2020-04-04 13:00:00 11.6 9 Este 16 Este 0 -- -- 61
2020-04-04 12:00:00 9.6 2 Este 12 Norte 0 -- -- 69
2020-04-04 11:00:00 7.3 8 Norte 18 Norte 0 -- -- 75
2020-04-04 10:00:00 5.9 9 Este 15 Este 0 -- -- 77
2020-04-04 09:00:00 2.7 0 Calma 8 Sur 0 -- -- 82
2020-04-04 08:00:00 0.6 3 Sudoeste 10 Oeste 0 -- -- 85
2020-04-04 07:00:00 0.9 6 Sudoeste 10 Oeste 0 -- -- 84
2020-04-04 06:00:00 1 3 Sudoeste 9 Oeste 0 -- -- 82
2020-04-04 05:00:00 1.4 2 Sudoeste 8 Oeste 0 -- -- 80
2020-04-04 04:00:00 1.8 4 Sudoeste 10 Oeste 0 -- -- 80
2020-04-04 03:00:00 2.3 3 Sudoeste 9 Oeste 0 -- -- 79
2020-04-04 02:00:00 2.8 2 Sur 12 Sur 0 -- -- 78
2020-04-04 01:00:00 3.1 5 Sudoeste 13 Oeste 0 -- -- 77
2020-04-04 00:00:00 3.5 3 Sudoeste 12 Sur 0 -- -- 71
2020-04-03 23:00:00 4 3 Sudoeste 9 Oeste 0 -- -- 68
2020-04-03 22:00:00 5.1 5 Sudoeste 9 Oeste 0 -- -- 62
2020-04-03 21:00:00 7 5 Este 8 Este 0 -- -- 65
2020-04-03 20:00:00 10.9 5 Este 12 Este 0 -- -- 43
2020-04-03 19:00:00 12.2 5 Este 15 Este 0 -- -- 41
2020-04-03 18:00:00 11.9 7 Este 18 Este 0 -- -- 39
2020-04-03 17:00:00 11.5 5 Este 14 Norte 0 -- -- 42
2020-04-03 16:00:00 10.8 7 Norte 20 Norte 0 -- -- 45
2020-04-03 15:00:00 9.5 8 Nordeste 17 Este 0 -- -- 55
2020-04-03 14:00:00 8.9 8 Norte 17 Norte 0 -- -- 63
2020-04-03 13:00:00 7.7 6 Nordeste 19 Norte 0 -- -- 64
2020-04-03 12:00:00 7 8 Nordeste 17 Norte 0 -- -- 65
2020-04-03 11:00:00 6.3 6 Nordeste 21 Este 0 -- -- 69
2020-04-03 10:00:00 4.2 7 Nordeste 12 Norte 0 -- -- 72
2020-04-03 09:00:00 2.7 6 Este 9 Este 0 -- -- 83
2020-04-03 08:00:00 2 6 Este 9 Este 0 -- -- 84
2020-04-03 07:00:00 2 5 Este 9 Este 0 -- -- 83
2020-04-03 06:00:00 2.2 5 Este 14 Sur 0 -- -- 80
2020-04-03 05:00:00 1.8 6 Este 10 Este 0 -- -- 86
2020-04-03 04:00:00 2 6 Este 10 Este 0 -- -- 86
2020-04-03 03:00:00 1.5 6 Este 10 Este 0 -- -- 86
2020-04-03 02:00:00 2.5 5 Este 7 Este 0 -- -- 88
2020-04-03 01:00:00 2.1 5 Este 15 Este 0 -- -- 86
2020-04-03 00:00:00 2.5 11 Este 15 Este 0 -- -- 83
2020-04-02 23:00:00 4.5 12 Este 16 Este 0 -- -- 78
2020-04-02 22:00:00 5.3 12 Este 16 Este 0 -- -- 79
2020-04-02 21:00:00 6.4 9 Este 17 Este 0.1 -- -- 74
2020-04-02 20:00:00 7.9 9 Este 18 Norte 0 -- -- 71
2020-04-02 19:00:00 9 10 Norte 16 Norte 0 -- -- 68
2020-04-02 18:00:00 8.9 10 Este 13 Nordeste 0 -- -- 78
2020-04-02 17:00:00 8.5 8 Este 13 Este 0 -- -- 77
2020-04-02 16:00:00 8.4 8 Nordeste 24 Este 0 -- -- 78
2020-04-02 15:00:00 9.3 14 Norte 25 Norte 0 -- -- 72
2020-04-02 14:00:00 9.5 10 Norte 23 Norte 0 -- -- 80
2020-04-02 13:00:00 8.6 7 Norte 14 Norte 0 -- -- 90
2020-04-02 12:00:00 7.1 6 Nordeste 12 Norte 0.5 -- -- 93
2020-04-02 11:00:00 7 6 Este 13 Norte 0 -- -- 93
2020-04-02 10:00:00 6.6 5 Nordeste 10 Este 0 -- -- 97
2020-04-02 09:00:00 5.9 3 Este 6 Este 0.2 -- -- 98
2020-04-02 08:00:00 6 0 Calma 5 Norte 0.5 -- -- 98
2020-04-02 07:00:00 6 2 Noroeste 4 Norte 0.3 -- -- 98
2020-04-02 06:00:00 6.1 0 Calma -- -- 0.2 -- -- 98
2020-04-02 05:00:00 6.2 0 Calma 6 Este 0.6 -- -- 98
2020-04-02 04:00:00 6.2 4 Este 12 Este 1.4 -- -- 98
2020-04-02 03:00:00 6.2 7 Este 15 Este 1.2 -- -- 98
2020-04-02 02:00:00 6.1 12 Este 17 Este 1.2 -- -- 98
2020-04-02 01:00:00 6.4 8 Este 12 Este 1 -- -- 98
2020-04-02 00:00:00 6.6 6 Este 11 Este 0.2 -- -- 97
2020-04-01 23:00:00 6.7 8 Este 10 Nordeste 0.1 -- -- 96
2020-04-01 22:00:00 6.8 6 Este 12 Este 0 -- -- 95
2020-04-01 21:00:00 7.2 6 Este 12 Este 0 -- -- 93
2020-04-01 20:00:00 7.6 7 Este 19 Este 0 -- -- 89
2020-04-01 19:00:00 7.6 13 Este 22 Este 0 -- -- 89
2020-04-01 18:00:00 7.9 12 Este 19 Este 0 -- -- 89
2020-04-01 17:00:00 8 13 Este 20 Nordeste 0 -- -- 89
2020-04-01 16:00:00 8.3 8 Este 15 Este 0 -- -- 84
2020-04-01 15:00:00 7.8 9 Este 14 Este 0 -- -- 87
2020-04-01 14:00:00 7.3 6 Nordeste 14 Este 0 -- -- 89
2020-04-01 13:00:00 6.7 8 Este 16 Este 0 -- -- 92
2020-04-01 12:00:00 6.2 7 Nordeste 15 Este 0 -- -- 95
2020-04-01 11:00:00 5.4 9 Este 13 Este 0.1 -- -- 99
2020-04-01 10:00:00 5.1 6 Este 10 Este 0.4 -- -- 99
2020-04-01 09:00:00 4.5 2 Noroeste 4 Sur 0.8 -- -- 99
2020-04-01 08:00:00 4.1 2 Sudoeste 6 Sur 0.3 -- -- 99
2020-04-01 07:00:00 4.3 4 Este 12 Este 0 -- -- 99
2020-04-01 06:00:00 4 6 Este 12 Este 0 -- -- 99
2020-04-01 05:00:00 3.9 6 Este 14 Este 0 -- -- 99
2020-04-01 04:00:00 3.8 7 Nordeste 23 Este 0 -- -- 99
2020-04-01 03:00:00 3.5 18 Este 27 Este 0 -- -- 99
2020-04-01 02:00:00 3.5 17 Este 29 Este 0 -- -- 99
2020-04-01 01:00:00 3.2 17 Este 27 Este 0 -- -- 99
2020-04-01 00:00:00 3.3 18 Este 28 Este 0 -- -- 99
2020-03-31 23:00:00 3.2 18 Este 26 Este 0 -- -- 99
2020-03-31 22:00:00 3.1 18 Este 29 Este 0 -- -- 99
2020-03-31 21:00:00 3 21 Este 31 Este 0 -- -- 99
2020-03-31 20:00:00 3.2 17 Este 27 Este 0 -- -- 99
2020-03-31 19:00:00 3.5 18 Este 41 Este 0 -- -- 96
2020-03-31 18:00:00 3.7 23 Este 37 Este 0 -- -- 96
2020-03-31 17:00:00 2.9 21 Este 34 Este 0 -- -- 96
2020-03-31 16:00:00 2.5 22 Este 32 Este 0 -- -- 96
2020-03-31 15:00:00 1.9 19 Este 36 Este 0 -- -- 98
2020-03-31 14:00:00 1.9 19 Este 31 Este 0 -- -- 97
2020-03-31 13:00:00 1 22 Este 34 Este 0 -- -- 97
2020-03-31 12:00:00 0.5 21 Este 33 Este 0 -- -- 96
2020-03-31 11:00:00 0 19 Este 34 Este 0 -- -- 97
2020-03-31 10:00:00 -0.8 16 Este 29 Este 0 -- -- 98
2020-03-31 09:00:00 -0.8 14 Este 26 Este 0 -- -- 96
2020-03-31 08:00:00 -1 17 Este 28 Este 0 -- -- 96
2020-03-31 07:00:00 -0.4 16 Este 28 Este 0 -- -- 96
2020-03-31 06:00:00 -0.6 9 Nordeste 20 Este 0 -- -- 96
2020-03-31 05:00:00 -0.8 7 Nordeste 13 Este 0 -- -- 96
2020-03-31 04:00:00 -0.6 7 Este 10 Nordeste 0 -- -- 92
2020-03-31 03:00:00 -0.5 7 Este 11 Nordeste 0 -- -- 92
2020-03-31 02:00:00 -0.2 7 Este 10 Este 0 -- -- 91
2020-03-31 01:00:00 -0.4 5 Este 8 Este 0 -- -- 92
2020-03-31 00:00:00 0 6 Este 10 Este 0 -- -- 91
2020-03-30 23:00:00 0.2 6 Este 17 Este 0 -- -- 88
2020-03-30 22:00:00 0.8 8 Nordeste 17 Este 0 -- -- 78
2020-03-30 21:00:00 1.3 7 Nordeste 19 Norte 0 -- -- 71
2020-03-30 20:00:00 1.7 16 Norte 22 Norte 0 -- -- 69
2020-03-30 19:00:00 2.3 10 Nordeste 21 Norte 0 -- -- 69
2020-03-30 18:00:00 2.5 10 Norte 22 Norte 0.1 -- -- 69
2020-03-30 17:00:00 2.2 9 Norte 22 Norte 0 -- -- 72
2020-03-30 16:00:00 2.5 13 Nordeste 30 Este 0 -- -- 60
2020-03-30 15:00:00 3.7 11 Nordeste 31 Norte 0 -- -- 55
2020-03-30 14:00:00 3.9 14 Norte 25 Norte 0 -- -- 57
2020-03-30 13:00:00 2.3 14 Norte 29 Norte 0 -- -- 60
2020-03-30 12:00:00 3 14 Nordeste 30 Norte 0 -- -- 61
2020-03-30 11:00:00 1.5 13 Nordeste 24 Norte 0 -- -- 72
2020-03-30 10:00:00 0.2 10 Este 21 Este 0 -- -- 82
2020-03-30 09:00:00 0 11 Nordeste 24 Este 0 -- -- 82
2020-03-30 08:00:00 0.4 8 Nordeste 18 Norte 0 -- -- 82
2020-03-30 07:00:00 0.7 8 Este 14 Este 0 -- -- 84
2020-03-30 06:00:00 0.8 6 Nordeste 20 Este 0 -- -- 83
2020-03-30 05:00:00 1.2 11 Norte 24 Norte 0 -- -- 86
2020-03-30 04:00:00 1.8 17 Norte 27 Norte 0 -- -- 86
2020-03-30 03:00:00 2.5 8 Nordeste 22 Norte 0 -- -- 86
2020-03-30 02:00:00 2.6 14 Norte 30 Norte 0 -- -- 87
2020-03-30 01:00:00 3.3 13 Norte 22 Norte 0 -- -- 89
2020-03-30 00:00:00 4.3 9 Nordeste 20 Norte 0 -- -- 94
2020-03-29 23:00:00 5.3 9 Este 13 Este 0 -- -- 92
2020-03-29 22:00:00 5.5 7 Nordeste 18 Norte 0 -- -- 92
2020-03-29 21:00:00 5.7 11 Nordeste 20 Norte 0 -- -- 92
2020-03-29 20:00:00 6.4 13 Nordeste 23 Norte 0 -- -- 87
2020-03-29 19:00:00 8.1 12 Nordeste 30 Este 0 -- -- 72
2020-03-29 18:00:00 10.5 14 Nordeste 26 Norte 0 -- -- 51
2020-03-29 17:00:00 11.4 14 Nordeste 28 Norte 0 -- -- 46
2020-03-29 16:00:00 12.2 12 Nordeste 27 Norte 0 -- -- 44
2020-03-29 15:00:00 11.8 10 Nordeste 27 Norte 0 -- -- 41
2020-03-29 14:00:00 11.4 8 Nordeste 19 Este 0 -- -- 42
2020-03-29 13:00:00 11 8 Nordeste 17 Este 0 -- -- 46
2020-03-29 12:00:00 9.1 8 Este 18 Este 0 -- -- 51
2020-03-29 11:00:00 8.1 8 Este 15 Este 0 -- -- 55
2020-03-29 10:00:00 6.6 8 Este 12 Este 0 -- -- 69
2020-03-29 09:00:00 3 0 Calma 7 Sur 0 -- -- 80
2020-03-29 08:00:00 1.3 3 Sur 8 Sur 0 -- -- 83
2020-03-29 07:00:00 1.5 4 Sur 8 Sur 0 -- -- 83
2020-03-29 06:00:00 1.9 5 Sudoeste 9 Sur 0 -- -- 82
2020-03-29 05:00:00 2.4 0 Calma 9 Sur 0 -- -- 83
2020-03-29 03:00:00 3.1 4 Sur 9 Sur 0 -- -- 82
2020-03-29 01:00:00 3.9 6 Este 14 Este 0 -- -- 83
2020-03-29 00:00:00 4.9 12 Este 13 Este 0 -- -- 78
2020-03-28 23:00:00 5.3 8 Este 11 Este 0 -- -- 78
2020-03-28 22:00:00 5.8 8 Este 11 Este 0 -- -- 76
2020-03-28 21:00:00 7.3 8 Este 12 Este 0 -- -- 70
2020-03-28 20:00:00 9 8 Este 15 Norte 0 -- -- 55
2020-03-28 19:00:00 12.6 5 Este 10 Este 0 -- -- 43
2020-03-28 18:00:00 13.6 8 Este 15 Este 0 -- -- 37
2020-03-28 17:00:00 14.1 5 Este 14 Este 0 -- -- 34
2020-03-28 16:00:00 13.5 5 Nordeste 15 Norte 0 -- -- 35
2020-03-28 15:00:00 13.3 6 Norte 18 Norte 0 -- -- 37
2020-03-28 14:00:00 13.2 8 Norte 17 Norte 0 -- -- 34
2020-03-28 13:00:00 12.5 8 Norte 20 Norte 0 -- -- 34
2020-03-28 12:00:00 11.6 8 Noroeste 22 Oeste 0 -- -- 38
2020-03-28 11:00:00 9.4 6 Oeste 13 Oeste 0 -- -- 53
2020-03-28 10:00:00 7.1 3 Oeste 11 Norte 0 -- -- 62
2020-03-28 09:00:00 3.5 0 Calma 4 Este 0 -- -- 74
2020-03-28 08:00:00 0.9 2 Sur 11 Sur 0 -- -- 82
2020-03-28 07:00:00 -0.3 3 Sudoeste 9 Sur 0 -- -- 86
2020-03-28 06:00:00 -0.2 3 Sudoeste 10 Sur 0 -- -- 88
2020-03-28 05:00:00 -0.2 0 Calma 10 Oeste 0 -- -- 89
2020-03-28 04:00:00 0.2 4 Sudoeste 10 Sur 0 -- -- 89
2020-03-28 03:00:00 0.5 4 Sudoeste 10 Sur 0 -- -- 87
2020-03-28 02:00:00 1.2 4 Sudoeste 8 Sur 0 -- -- 84
2020-03-28 01:00:00 1.9 3 Sur 8 Sur 0 -- -- 79
2020-03-28 00:00:00 1.6 4 Sudoeste 9 Sur 0 -- -- 77
2020-03-27 23:00:00 2 5 Sur 9 Sur 0 -- -- 72
2020-03-27 22:00:00 2.8 4 Este 16 Norte 0 -- -- 73
2020-03-27 21:00:00 4.5 10 Norte 15 Norte 0 -- -- 55
2020-03-27 20:00:00 6 0 Calma 15 Este 0 -- -- 52
2020-03-27 19:00:00 9.1 11 Este 22 Este 0 -- -- 42
2020-03-27 18:00:00 10.4 16 Este 26 Este 0 -- -- 38
2020-03-27 17:00:00 10.8 15 Nordeste 31 Este 0 -- -- 37
2020-03-27 16:00:00 10.6 15 Nordeste 27 Este 0 -- -- 38
2020-03-27 15:00:00 10.4 14 Este 30 Este 0 -- -- 42
2020-03-27 14:00:00 9.6 12 Este 23 Este 0 -- -- 51
2020-03-27 13:00:00 8.1 11 Nordeste 23 Este 0 -- -- 56
2020-03-27 12:00:00 7.2 11 Nordeste 23 Este 0 -- -- 60
2020-03-27 11:00:00 6 11 Norte 24 Norte 0 -- -- 65
2020-03-27 10:00:00 3.9 10 Norte 17 Noroeste 0 -- -- 77
2020-03-27 09:00:00 2.8 5 Este 10 Nordeste 0 -- -- 82
2020-03-27 08:00:00 -0.2 0 Calma -- -- 0 -- -- 89
2020-03-27 07:00:00 -1 0 Calma 4 Sur 0 -- -- 86
2020-03-27 06:00:00 -1.6 0 Calma 6 Sur 0 -- -- 87
2020-03-27 05:00:00 -1.1 0 Calma 5 Sur 0 -- -- 87
2020-03-27 04:00:00 -1.3 3 Este 7 Este 0 -- -- 89
2020-03-27 03:00:00 -1.1 5 Este 8 Este 0 -- -- 87
2020-03-27 02:00:00 0.2 5 Este 9 Este 0 -- -- 86
2020-03-27 01:00:00 0.2 8 Este 12 Este 0 -- -- 82
2020-03-27 00:00:00 1 8 Este 13 Este 0 -- -- 81
2020-03-26 23:00:00 1.3 9 Este 16 Este 0 -- -- 84
2020-03-26 22:00:00 2 9 Este 14 Este 0 -- -- 80
2020-03-26 21:00:00 2.3 11 Este 17 Este 0 -- -- 75
2020-03-26 20:00:00 4.1 11 Este 17 Norte 0 -- -- 68
2020-03-26 19:00:00 5.3 9 Nordeste 21 Nordeste 0 -- -- 58
2020-03-26 18:00:00 6.7 14 Norte 23 Noroeste 0 -- -- 53
2020-03-26 17:00:00 8.2 17 Norte 27 Norte 0 -- -- 52
2020-03-26 16:00:00 7.7 15 Norte 32 Norte 0 -- -- 53
2020-03-26 15:00:00 7.3 15 Noroeste 27 Norte 0 -- -- 57
2020-03-26 14:00:00 6.5 9 Este 28 Norte 0 -- -- 63
2020-03-26 13:00:00 6.3 14 Norte 35 Norte 0 -- -- 61
2020-03-26 12:00:00 6.7 19 Norte 33 Norte 0 -- -- 51
2020-03-26 11:00:00 6.1 14 Norte 24 Norte 0 -- -- 65
2020-03-26 10:00:00 5 8 Oeste 22 Oeste 0 -- -- 69
2020-03-26 09:00:00 4.7 3 Oeste 10 Oeste 0 -- -- 71
2020-03-26 08:00:00 3.5 0 Calma 8 Sur 0 -- -- 76
2020-03-26 07:00:00 3 0 Calma 6 Sur 0 -- -- 77
2020-03-26 06:00:00 2.3 0 Calma 5 Oeste 0 -- -- 79
2020-03-26 05:00:00 3 0 Calma 8 Sur 0 -- -- 73
2020-03-26 04:00:00 2.9 0 Calma 6 Sur 0 -- -- 76
2020-03-26 03:00:00 2.9 0 Calma 8 Sur 0 -- -- 77
2020-03-26 02:00:00 1.8 0 Calma 8 Oeste 0 -- -- 80
2020-03-26 01:00:00 1.2 4 Sur 16 Este 0 -- -- 81
2020-03-26 00:00:00 1.5 0 Calma 12 Sur 0 -- -- 78
2020-03-25 23:00:00 2.8 5 Este 16 Este 0 -- -- 81
2020-03-25 22:00:00 3.4 2 Sur 14 Este 0 -- -- 55
2020-03-25 21:00:00 6.4 2 Norte 21 Oeste 0 -- -- 42
2020-03-25 20:00:00 8.5 10 Noroeste 23 Norte 0 -- -- 37
2020-03-25 19:00:00 11.2 13 Norte 23 Noroeste 0 -- -- 35
2020-03-25 18:00:00 14 14 Norte 22 Norte 0 -- -- 34
2020-03-25 17:00:00 14.2 10 Nordeste 19 Norte 0 -- -- 41
2020-03-25 16:00:00 15.2 5 Noroeste 24 Norte 0 -- -- 35
2020-03-25 15:00:00 14.6 8 Oeste 17 Oeste 0 -- -- 37
2020-03-25 14:00:00 13.4 3 Nordeste 15 Norte 0 -- -- 44
2020-03-25 13:00:00 12.5 7 Norte 16 Este 0 -- -- 45
2020-03-25 12:00:00 12.3 4 Norte 13 Norte 0 -- -- 47
2020-03-25 11:00:00 10.9 5 Noroeste 12 Norte 0 -- -- 61
2020-03-25 10:00:00 9.5 5 Oeste 11 Oeste 0 -- -- 71
2020-03-25 09:00:00 7.8 0 Calma 5 Sur 0 -- -- 85
2020-03-25 08:00:00 4 2 Noroeste 5 Norte 0 -- -- 92
2020-03-25 07:00:00 4.4 0 Calma 6 Norte 0 -- -- 92
2020-03-25 06:00:00 3.7 3 Oeste 10 Sur 0 -- -- 91
2020-03-25 05:00:00 4 3 Sudoeste 10 Oeste 0 -- -- 90
2020-03-25 04:00:00 3.8 4 Sudoeste 12 Sur 0 -- -- 89
2020-03-25 03:00:00 4.2 4 Sudoeste 10 Oeste 0 -- -- 88
2020-03-25 02:00:00 4.6 3 Sudoeste 9 Sur 0 -- -- 85
2020-03-25 01:00:00 5.7 4 Sudoeste 10 Sur 0 -- -- 81
2020-03-25 00:00:00 6.6 5 Sur 8 Sur 0 -- -- 77
2020-03-24 23:00:00 7 0 Calma 8 Oeste 0 -- -- 74
2020-03-24 22:00:00 7.1 4 Sudoeste 10 Sur 0 -- -- 72
2020-03-24 21:00:00 7.4 3 Sudoeste 9 Oeste 0 -- -- 69
2020-03-24 20:00:00 9.2 2 Sudeste 10 Este 0 -- -- 65
2020-03-24 19:00:00 11.4 7 Nordeste 22 Este 0 -- -- 52
2020-03-24 18:00:00 13.3 12 Nordeste 25 Este 0 -- -- 48
2020-03-24 17:00:00 13.8 17 Este 31 Este 0 -- -- 48
2020-03-24 16:00:00 13.6 19 Este 33 Este 0 -- -- 51
2020-03-24 15:00:00 13.3 18 Nordeste 35 Este 0 -- -- 55
2020-03-24 14:00:00 13.3 20 Este 32 Este 0 -- -- 59
2020-03-24 13:00:00 12.1 17 Este 31 Este 0 -- -- 64
2020-03-24 12:00:00 11.1 16 Nordeste 28 Este 0 -- -- 72
2020-03-24 11:00:00 9.6 17 Este 27 Este 0 -- -- 81
2020-03-24 10:00:00 7.8 9 Este 18 Este 0 -- -- 93
2020-03-24 09:00:00 7.4 9 Este 14 Este 0 -- -- 94
2020-03-24 08:00:00 7.2 5 Este 14 Este 0 -- -- 96
2020-03-24 07:00:00 7.2 10 Este 19 Este 0 -- -- 96
2020-03-24 06:00:00 6 0 Calma 14 Nordeste 0 -- -- 93
2020-03-24 05:00:00 5.6 4 Sudoeste 9 Sur 0 -- -- 92
2020-03-24 04:00:00 6.1 2 Sudoeste 10 Oeste 0 -- -- 93
2020-03-24 03:00:00 6.4 4 Sudoeste 13 Este 0 -- -- 93
2020-03-24 02:00:00 7.5 12 Este 21 Este 0 -- -- 95
2020-03-24 01:00:00 7.8 12 Este 22 Este 0 -- -- 94
2020-03-24 00:00:00 7.9 14 Este 24 Este 0 -- -- 95
2020-03-23 23:00:00 7.7 12 Este 22 Nordeste 0 -- -- 95
2020-03-23 22:00:00 7.5 8 Nordeste 26 Este 0 -- -- 92
2020-03-23 21:00:00 8.7 6 Nordeste 17 Norte 0 -- -- 75
2020-03-23 20:00:00 10 9 Nordeste 22 Este 0 -- -- 69
2020-03-23 19:00:00 11 14 Este 26 Este 0 -- -- 66
2020-03-23 18:00:00 12.1 15 Este 25 Este 0 -- -- 61
2020-03-23 17:00:00 13.2 19 Este 30 Este 0 -- -- 59
2020-03-23 16:00:00 12.2 19 Este 27 Este 0 -- -- 60
2020-03-23 15:00:00 13.1 17 Este 32 Este 0 -- -- 63
2020-03-23 14:00:00 11.6 18 Este 28 Este 0 -- -- 69
2020-03-23 13:00:00 11.2 19 Este 27 Nordeste 0 -- -- 70
2020-03-23 12:00:00 11.4 13 Nordeste 21 Norte 0 -- -- 79
2020-03-23 11:00:00 8.9 9 Nordeste 21 Norte 0 -- -- 89
2020-03-23 10:00:00 8.2 10 Este 17 Este 0 -- -- 93
2020-03-23 09:00:00 7.4 10 Este 15 Este 0 -- -- 96
2020-03-23 08:00:00 7.1 6 Nordeste 15 Este 0 -- -- 97
2020-03-23 07:00:00 7 8 Nordeste 14 Norte 0 -- -- 98
2020-03-23 06:00:00 7.1 6 Este 15 Este 0 -- -- 97
2020-03-23 05:00:00 7.2 7 Este 12 Nordeste 0 -- -- 93
2020-03-23 04:00:00 7.5 5 Este 10 Este 0 -- -- 92
2020-03-23 03:00:00 7.6 4 Este 9 Este 0 -- -- 90
2020-03-23 02:00:00 7.8 6 Este 8 Este 0 -- -- 89
2020-03-23 01:00:00 7.9 6 Este 11 Este 0 -- -- 89
2020-03-23 00:00:00 8 6 Este 9 Este 0 -- -- 89
2020-03-22 23:00:00 8.4 5 Este 10 Este 0 -- -- 89
2020-03-22 22:00:00 8.6 7 Este 13 Este 0 -- -- 86
2020-03-22 21:00:00 8.6 9 Este 17 Este 0 -- -- 76
2020-03-22 20:00:00 9.3 10 Este 24 Este 0 -- -- 79
2020-03-22 19:00:00 10.7 5 Nordeste 17 Este 0 -- -- 65
2020-03-22 18:00:00 12.2 8 Nordeste 27 Este 0 -- -- 58
2020-03-22 17:00:00 13.4 14 Nordeste 27 Norte 0 -- -- 54
2020-03-22 16:00:00 14 16 Este 27 Este 0 -- -- 50
2020-03-22 15:00:00 13.8 15 Este 24 Norte 0 -- -- 52
2020-03-22 14:00:00 13.6 11 Este 23 Norte 0 -- -- 59
2020-03-22 13:00:00 12.8 9 Nordeste 20 Este 0 -- -- 69
2020-03-22 12:00:00 11.2 12 Este 19 Este 0 -- -- 73
2020-03-22 11:00:00 9.8 7 Norte 16 Norte 0 -- -- 81
2020-03-22 10:00:00 7.1 0 Calma 5 Sur 0 -- -- 92
2020-03-22 09:00:00 6 0 Calma -- -- 0 -- -- 96
2020-03-22 08:00:00 4.7 0 Calma -- -- 0 -- -- 96
2020-03-22 07:00:00 4.6 0 Calma -- -- 0 -- -- 95
2020-03-22 06:00:00 5.1 0 Calma -- -- 0 -- -- 94
2020-03-22 05:00:00 6.1 0 Calma -- -- 0 -- -- 94
2020-03-22 04:00:00 5.7 0 Calma -- -- 0 -- -- 94
2020-03-22 03:00:00 5.7 0 Calma 4 Sur 0 -- -- 93
2020-03-22 02:00:00 5.8 2 Sudoeste 6 Sudoeste 0 -- -- 93
2020-03-22 01:00:00 5.3 0 Calma 7 Oeste 0 -- -- 93
2020-03-22 00:00:00 5.5 2 Sudoeste 7 Sur 0 -- -- 91
2020-03-21 23:00:00 5.6 4 Sudoeste 8 Oeste 0 -- -- 89
2020-03-21 22:00:00 6.4 0 Calma 6 Este 0 -- -- 87
2020-03-21 21:00:00 7.2 3 Norte 10 Este 0 -- -- 86
2020-03-21 20:00:00 9.1 4 Este 17 Este 0 -- -- 82
2020-03-21 19:00:00 10.1 12 Este 16 Este 0 -- -- 76
2020-03-21 18:00:00 11.5 8 Nordeste 15 Este 0 -- -- 74
2020-03-21 17:00:00 11.6 9 Este 16 Este 0 -- -- 72
2020-03-21 16:00:00 11.6 7 Nordeste 14 Norte 0 -- -- 73
2020-03-21 15:00:00 9.8 5 Noroeste 13 Oeste 0 -- -- 82
2020-03-21 14:00:00 8.5 2 Noroeste 15 Este 0 -- -- 89
2020-03-21 13:00:00 7.9 5 Nordeste 17 Este 0 -- -- 98
2020-03-21 12:00:00 6.2 8 Este 16 Este 0 -- -- 99
2020-03-21 11:00:00 5.7 8 Este 13 Este 0 -- -- 99
2020-03-21 10:00:00 5.3 6 Nordeste 13 Norte 0 -- -- 99
2020-03-21 09:00:00 4.7 8 Este 14 Este 0 -- -- 99
2020-03-21 08:00:00 5 10 Este 15 Nordeste 0 -- -- 99
2020-03-21 07:00:00 5.5 6 Este 10 Este 0 -- -- 99
2020-03-21 06:00:00 5.3 3 Sur 11 Oeste 0 -- -- 96
2020-03-21 05:00:00 5.7 4 Sudoeste 9 Oeste 0 -- -- 96
2020-03-21 04:00:00 6.3 2 Sudoeste 9 Oeste 0 -- -- 96
2020-03-21 03:00:00 6.6 0 Calma 7 Sur 0 -- -- 96
2020-03-21 02:00:00 6.9 0 Calma 6 Sur 0 -- -- 95
2020-03-21 01:00:00 6.7 0 Calma 6 Oeste 0 -- -- 94
2020-03-21 00:00:00 6.8 0 Calma 6 Oeste 0 -- -- 94
2020-03-20 23:00:00 6 0 Calma 8 Sur 0 -- -- 93
2020-03-20 22:00:00 6.1 3 Sudoeste 9 Oeste 0 -- -- 90
2020-03-20 21:00:00 6.9 3 Sudoeste 7 Sur 0 -- -- 89
2020-03-20 20:00:00 8.2 3 Este 14 Este 0 -- -- 87
2020-03-20 19:00:00 9.6 10 Este 20 Nordeste 0 -- -- 82
2020-03-20 18:00:00 10.4 13 Este 20 Este 0 -- -- 80
2020-03-20 17:00:00 10.5 12 Este 21 Este 0 -- -- 80
2020-03-20 16:00:00 11.2 13 Este 21 Nordeste 0 -- -- 80
2020-03-20 15:00:00 9.4 13 Este 26 Este 0 -- -- 85
2020-03-20 14:00:00 9.3 15 Este 23 Este 0 -- -- 87
2020-03-20 13:00:00 7.9 13 Este 22 Este 0 -- -- 92
2020-03-20 12:00:00 6.3 9 Este 15 Este 0 -- -- 96
2020-03-20 11:00:00 5.4 6 Este 11 Este 0 -- -- 98
2020-03-20 10:00:00 4.9 3 Este 9 Este 0 -- -- 99
2020-03-20 09:00:00 4.6 7 Este 13 Este 0 -- -- 99
2020-03-20 08:00:00 4.4 6 Este 12 Este 0 -- -- 99
2020-03-20 07:00:00 4.7 8 Este 13 Este 0 -- -- 98
2020-03-20 06:00:00 5.2 8 Este 13 Este 0 -- -- 97
2020-03-20 05:00:00 5.9 4 Este 8 Norte 0 -- -- 97
2020-03-20 04:00:00 5.9 5 Este 9 Este 0 -- -- 96
2020-03-20 03:00:00 5.4 0 Calma 5 Norte 0 -- -- 96
2020-03-20 02:00:00 5.3 0 Calma 8 Oeste 0 -- -- 96
2020-03-20 01:00:00 5.4 3 Oeste 8 Oeste 0 -- -- 94
2020-03-20 00:00:00 5.7 0 Calma 6 Sur 0 -- -- 93
2020-03-19 23:00:00 6.5 0 Calma 6 Sur 0 -- -- 91
2020-03-19 22:00:00 7.1 3 Sudoeste 5 Oeste 0 -- -- 90
2020-03-19 21:00:00 8.2 0 Calma 10 Este 0 -- -- 87
2020-03-19 20:00:00 9.2 8 Este 23 Este 0 -- -- 87
2020-03-19 19:00:00 11.2 19 Este 26 Este 0 -- -- 76
2020-03-19 18:00:00 12.2 17 Este 27 Este 0 -- -- 76
2020-03-19 17:00:00 13.1 18 Este 32 Este 0 -- -- 76
2020-03-19 16:00:00 13.7 18 Este 31 Este 0 -- -- 77
2020-03-19 15:00:00 13 15 Este 24 Este 0 -- -- 83
2020-03-19 14:00:00 12.8 9 Este 15 Este 0 -- -- 79
2020-03-19 13:00:00 10.2 6 Este 13 Este 0 -- -- 85
2020-03-19 12:00:00 8.3 4 Este 11 Este 0 -- -- 97
2020-03-19 11:00:00 7.9 2 Nordeste 8 Este 0 -- -- 99
2020-03-19 10:00:00 7.7 2 Este 9 Norte 0 -- -- 99
2020-03-19 09:00:00 7.6 4 Norte 9 Norte 0 -- -- 99
2020-03-19 08:00:00 7 3 Sudoeste 10 Oeste 0 -- -- 98
2020-03-19 07:00:00 6.7 5 Sudoeste 10 Oeste 0 -- -- 97
2020-03-19 06:00:00 7.3 4 Sudoeste 8 Oeste 0.1 -- -- 98
2020-03-19 05:00:00 7.6 0 Calma 7 Oeste 0 -- -- 97
2020-03-19 04:00:00 7.4 3 Sudoeste 9 Oeste 0 -- -- 97
2020-03-19 03:00:00 7.8 3 Sudoeste 9 Sudoeste 0 -- -- 98
2020-03-19 02:00:00 8 2 Sudoeste 8 Oeste 0 -- -- 98
2020-03-19 01:00:00 8.9 0 Calma 7 Sur 0 -- -- 98
2020-03-19 00:00:00 9.2 0 Calma 5 Oeste 0 -- -- 98
2020-03-18 23:00:00 9.2 0 Calma 6 Oeste 0 -- -- 96
2020-03-18 22:00:00 9.8 0 Calma 5 Este 0 -- -- 96
2020-03-18 21:00:00 9.7 0 Calma 2 Sur 0 -- -- 93
2020-03-18 20:00:00 9.8 0 Calma 7 Este 0 -- -- 92
2020-03-18 19:00:00 10.7 5 Este 10 Este 0 -- -- 90
2020-03-18 18:00:00 11.7 7 Este 13 Este 0 -- -- 88
2020-03-18 17:00:00 12.1 10 Este 18 Este 0 -- -- 85
2020-03-18 16:00:00 13.7 10 Este 16 Este 0 -- -- 76
2020-03-18 15:00:00 13.9 10 Este 17 Este 0 -- -- 79
2020-03-18 14:00:00 12.1 11 Este 17 Este 0 -- -- 87
2020-03-18 13:00:00 11.8 8 Norte 13 Noroeste 0 -- -- 85
2020-03-18 12:00:00 10.4 6 Norte 12 Norte 0 -- -- 87
2020-03-18 11:00:00 9.1 0 Calma 7 Norte 0 -- -- 88
2020-03-18 10:00:00 7.4 0 Calma 5 Sur 0 -- -- 96
2020-03-18 09:00:00 5 0 Calma 10 Sudoeste 0 -- -- 96
2020-03-18 08:00:00 4.4 0 Calma 7 Sur 0 -- -- 98
2020-03-18 07:00:00 4.1 2 Sudoeste 11 Sur 0 -- -- 98
2020-03-18 06:00:00 4 2 Sudoeste 8 Sur 0 -- -- 96
2020-03-18 05:00:00 4.8 2 Sudoeste 8 Oeste 0 -- -- 98
2020-03-18 04:00:00 4.7 0 Calma 8 Oeste 0 -- -- 97
2020-03-18 03:00:00 4.8 2 Este 4 Este 0 -- -- 97
2020-03-18 02:00:00 5.4 0 Calma 11 Sur 0 -- -- 96
2020-03-18 01:00:00 6.4 3 Sudoeste 9 Sur 0 -- -- 96
2020-03-18 00:00:00 7.1 0 Calma 8 Sur 0 -- -- 96
2020-03-17 23:00:00 6.6 3 Sudoeste 8 Sur 0 -- -- 97
2020-03-17 22:00:00 6.7 0 Calma 13 Este 0 -- -- 99
2020-03-17 21:00:00 7.5 5 Nordeste 23 Este 0 -- -- 99
2020-03-17 20:00:00 8.1 14 Este 23 Este 0 -- -- 99
2020-03-17 19:00:00 8.3 14 Este 26 Este 0 -- -- 98
2020-03-17 18:00:00 8.6 18 Este 24 Este 0 -- -- 96
2020-03-17 17:00:00 9 17 Este 25 Este 0 -- -- 94
2020-03-17 16:00:00 8.6 15 Este 29 Este 0 -- -- 96
2020-03-17 15:00:00 8.4 19 Este 28 Este 0 -- -- 97
2020-03-17 14:00:00 8.1 12 Este 23 Este 0 -- -- 98
2020-03-17 13:00:00 7.9 8 Nordeste 21 Este 0 -- -- 99
2020-03-17 12:00:00 7.1 10 Este 19 Este 0 -- -- 99
2020-03-17 11:00:00 6.8 12 Este 23 Este 0.2 -- -- 99
2020-03-17 10:00:00 6.6 13 Este 21 Este 0.2 -- -- 99
2020-03-17 09:00:00 6.4 10 Nordeste 18 Norte 0.4 -- -- 99
2020-03-17 08:00:00 6.2 6 Nordeste 19 Este 0.8 -- -- 99
2020-03-17 07:00:00 6 9 Nordeste 20 Este 0.8 -- -- 99
2020-03-17 06:00:00 5.9 9 Nordeste 22 Norte 0.6 -- -- 99
2020-03-17 05:00:00 5.6 4 Nordeste 18 Este 0.8 -- -- 99
2020-03-17 04:00:00 5.5 11 Este 19 Este 0.3 -- -- 99
2020-03-17 03:00:00 5.4 9 Nordeste 18 Este 0.2 -- -- 99
2020-03-17 02:00:00 5.4 9 Nordeste 23 Norte 0.6 -- -- 99
2020-03-17 01:00:00 5.2 13 Nordeste 28 Nordeste 1.3 -- -- 99
2020-03-17 00:00:00 5.1 14 Este 28 Este 1.1 -- -- 99
2020-03-16 23:00:00 4.9 11 Nordeste 21 Este 3.9 -- -- 99
2020-03-16 22:00:00 4.8 11 Nordeste 23 Este 2.7 -- -- 99
2020-03-16 21:00:00 4.9 13 Nordeste 31 Este 2.5 -- -- 99
2020-03-16 20:00:00 4.8 14 Nordeste 26 Norte 1 -- -- 99
2020-03-16 19:00:00 4.8 13 Nordeste 30 Norte 2.7 -- -- 99
2020-03-16 18:00:00 4.3 13 Nordeste 28 Norte 0.8 -- -- 99
2020-03-16 17:00:00 3.5 13 Este 26 Este 0.8 -- -- 99
2020-03-16 16:00:00 3.5 15 Este 26 Norte 2.2 -- -- 99
2020-03-16 15:00:00 3.2 11 Nordeste 23 Este 2 -- -- 98
2020-03-16 14:00:00 1.8 5 Este 10 Este 3.9 -- -- 98
2020-03-16 13:00:00 1.2 4 Este 6 Este 2.9 -- -- 98
2020-03-16 12:00:00 1 4 Este 8 Este 2.3 -- -- 99
2020-03-16 11:00:00 1.1 6 Este 10 Este 1.1 -- -- 99
2020-03-16 10:00:00 1.2 5 Este 11 Este 1 -- -- 99
2020-03-16 09:00:00 1 8 Este 12 Este 1.1 -- -- 99
2020-03-16 08:00:00 0.8 7 Este 11 Este 1.7 -- -- 99
2020-03-16 07:00:00 0.8 4 Este 9 Este 1.8 -- -- 99
2020-03-16 06:00:00 0.7 8 Este 12 Este 1.4 -- -- 99
2020-03-16 05:00:00 0.8 9 Este 18 Este 0.5 -- -- 99
2020-03-16 04:00:00 1 10 Este 17 Este 1.4 -- -- 98
2020-03-16 03:00:00 2.4 12 Este 21 Este 0.4 -- -- 97
2020-03-16 02:00:00 3 15 Este 27 Este 1.3 -- -- 96
2020-03-16 01:00:00 3.8 12 Este 22 Este 1.9 -- -- 96
2020-03-16 00:00:00 4.8 14 Este 24 Norte 0 -- -- 96
2020-03-15 23:00:00 5.7 13 Nordeste 23 Este 1.1 -- -- 97
2020-03-15 22:00:00 6.6 13 Este 20 Norte 2.5 -- -- 99
2020-03-15 21:00:00 7 12 Nordeste 29 Este 0 -- -- 98
2020-03-15 20:00:00 8.4 13 Este 28 Norte 2.2 -- -- 97
2020-03-15 19:00:00 10.6 3 Este 28 Este 3.3 -- -- 88
2020-03-15 18:00:00 11 18 Este 29 Este 1.5 -- -- 82
2020-03-15 17:00:00 13.4 20 Este 31 Este 0 -- -- 54
2020-03-15 16:00:00 14.2 16 Este 23 Este 0 -- -- 53
2020-03-15 15:00:00 14 16 Este 27 Este 0 -- -- 55
2020-03-15 14:00:00 13.8 19 Este 27 Este 0 -- -- 54
2020-03-15 13:00:00 12.9 12 Este 21 Este 0 -- -- 56
2020-03-15 12:00:00 11.4 11 Este 17 Este 0 -- -- 56
2020-03-15 11:00:00 9.7 8 Este 13 Este 0 -- -- 61
2020-03-15 10:00:00 8.1 6 Este 10 Norte 0 -- -- 64
2020-03-15 09:00:00 5.9 0 Calma 4 Sur 0 -- -- 61
2020-03-15 08:00:00 1.9 0 Calma 6 Oeste 0 -- -- 69
2020-03-15 07:00:00 1.3 0 Calma 5 Sur 0 -- -- 67
2020-03-15 06:00:00 1.6 2 Sudoeste 9 Oeste 0 -- -- 64
2020-03-15 05:00:00 2.2 0 Calma 9 Oeste 0 -- -- 64
2020-03-15 04:00:00 3.1 4 Sudoeste 9 Oeste 0 -- -- 62
2020-03-15 03:00:00 3.1 4 Sudoeste 10 Sur 0 -- -- 62
2020-03-15 02:00:00 2.8 3 Sudoeste 12 Sur 0 -- -- 64
2020-03-15 01:00:00 3 6 Sudoeste 13 Sur 0 -- -- 66
2020-03-15 00:00:00 3.3 4 Sudoeste 12 Sur 0 -- -- 72
2020-03-14 23:00:00 3.9 4 Sudoeste 10 Sur 0 -- -- 73
2020-03-14 22:00:00 4.5 5 Sudoeste 9 Oeste 0 -- -- 71
2020-03-14 21:00:00 5.9 5 Sudoeste 9 Oeste 0 -- -- 66
2020-03-14 20:00:00 8.3 0 Calma 13 Este 0 -- -- 61
2020-03-14 19:00:00 10.9 12 Este 14 Este 0 -- -- 47
2020-03-14 18:00:00 13.3 8 Este 15 Este 0 -- -- 36
2020-03-14 17:00:00 14.4 6 Este 14 Este 0 -- -- 32
2020-03-14 16:00:00 14.3 5 Este 15 Norte 0 -- -- 34
2020-03-14 15:00:00 13.4 9 Este 17 Este 0 -- -- 38
2020-03-14 14:00:00 12.1 10 Este 20 Este 0 -- -- 47
2020-03-14 13:00:00 10.9 10 Este 28 Este 0 -- -- 59
2020-03-14 12:00:00 9.5 11 Este 24 Sur 0 -- -- 64
2020-03-14 11:00:00 9 9 Este 16 Este 0 -- -- 65
2020-03-14 10:00:00 7.4 8 Este 17 Este 0 -- -- 70
2020-03-14 09:00:00 5.4 6 Este 11 Este 0 -- -- 80
2020-03-14 08:00:00 0.3 3 Sur 7 Sur 0 -- -- 86
2020-03-14 07:00:00 0.1 3 Sur 11 Sur 0 -- -- 86
2020-03-14 06:00:00 0 4 Sudoeste 8 Oeste 0 -- -- 87
2020-03-14 05:00:00 0.3 3 Sudoeste 8 Sur 0 -- -- 87
2020-03-14 04:00:00 0.5 2 Sur 8 Sur 0 -- -- 92
2020-03-14 03:00:00 1.3 3 Sudeste 8 Este 0 -- -- 92
2020-03-14 02:00:00 1.1 0 Calma 6 Sur 0 -- -- 92
2020-03-14 01:00:00 1.2 3 Sudoeste 9 Sur 0 -- -- 92
2020-03-14 00:00:00 2 8 Este 11 Este 0 -- -- 92
2020-03-13 23:00:00 2.5 4 Este 10 Este 0 -- -- 91
2020-03-13 22:00:00 3.1 6 Este 11 Este 0 -- -- 91
2020-03-13 21:00:00 4 5 Este 8 Este 0 -- -- 90
2020-03-13 20:00:00 4.9 7 Este 9 Este 0 -- -- 88
2020-03-13 19:00:00 6.4 6 Este 14 Este 0 -- -- 83
2020-03-13 18:00:00 7.3 9 Este 18 Norte 0 -- -- 81
2020-03-13 17:00:00 7.2 10 Nordeste 20 Norte 0 -- -- 83
2020-03-13 16:00:00 7.6 13 Norte 19 Norte 0 -- -- 84
2020-03-13 15:00:00 7.6 13 Norte 24 Norte 0 -- -- 84
2020-03-13 14:00:00 8.1 12 Nordeste 21 Este 0 -- -- 85
2020-03-13 13:00:00 7.8 11 Nordeste 19 Norte 0 -- -- 88
2020-03-13 12:00:00 7.9 10 Este 19 Este 0 -- -- 85
2020-03-13 11:00:00 7.3 10 Este 19 Este 0 -- -- 91
2020-03-13 10:00:00 6.7 9 Nordeste 17 Este 0 -- -- 94
2020-03-13 09:00:00 6.4 10 Este 18 Este 0 -- -- 96
2020-03-13 08:00:00 6.2 13 Este 24 Este 0 -- -- 97
2020-03-13 07:00:00 6.3 14 Este 23 Este 0 -- -- 98
2020-03-13 06:00:00 6.5 14 Este 23 Este 0 -- -- 97
2020-03-13 05:00:00 6.7 13 Este 22 Este 0 -- -- 97
2020-03-13 04:00:00 7 12 Nordeste 21 Este 0 -- -- 96
2020-03-13 03:00:00 7.2 9 Este 17 Este 0 -- -- 96
2020-03-13 02:00:00 7.3 8 Este 13 Este 0 -- -- 96
2020-03-13 01:00:00 7.4 9 Este 15 Norte 0 -- -- 96
2020-03-13 00:00:00 7.6 8 Nordeste 23 Norte 0 -- -- 97
2020-03-12 23:00:00 7.7 14 Norte 22 Norte 0 -- -- 99
2020-03-12 22:00:00 8.5 10 Este 19 Este 0 -- -- 98
2020-03-12 21:00:00 8.6 10 Este 16 Este 0 -- -- 98
2020-03-12 20:00:00 8.8 9 Nordeste 23 Norte 0 -- -- 97
2020-03-12 19:00:00 9.6 10 Este 21 Norte 0 -- -- 90
2020-03-12 18:00:00 10.2 9 Nordeste 20 Norte 0 -- -- 86
2020-03-12 17:00:00 10.7 13 Nordeste 22 Norte 0 -- -- 84
2020-03-12 16:00:00 11.6 11 Norte 21 Norte 0 -- -- 81
2020-03-12 15:00:00 13 8 Este 19 Este 0 -- -- 76
2020-03-12 14:00:00 12.6 9 Este 18 Este 0 -- -- 77
2020-03-12 13:00:00 12.3 6 Nordeste 17 Este 0 -- -- 79
2020-03-12 12:00:00 11.3 10 Este 17 Este 0 -- -- 84
2020-03-12 11:00:00 10.4 7 Nordeste 21 Este 0 -- -- 90
2020-03-12 10:00:00 9.6 11 Este 17 Este 0 -- -- 95
2020-03-12 09:00:00 9.1 12 Este 18 Este 0 -- -- 96
2020-03-12 08:00:00 8.9 10 Este 16 Este 0 -- -- 93
2020-03-12 07:00:00 10.3 9 Este 12 Este 0 -- -- 74
2020-03-12 06:00:00 11.6 0 Calma 7 Sur 0 -- -- 66
2020-03-12 05:00:00 11.9 0 Calma 6 Sur 0 -- -- 65
2020-03-12 04:00:00 11.4 0 Calma -- -- 0 -- -- 65
2020-03-12 03:00:00 12.7 0 Calma 9 Norte 0 -- -- 60
2020-03-12 02:00:00 13.5 2 Sudoeste 10 Oeste 0 -- -- 55
2020-03-12 01:00:00 13.6 3 Sur 5 Sur 0 -- -- 54
2020-03-12 00:00:00 14.2 2 Este 10 Este 0 -- -- 52
2020-03-11 23:00:00 14.7 4 Sudeste 9 Este 0 -- -- 49
2020-03-11 22:00:00 14.8 6 Este 11 Este 0 -- -- 46
2020-03-11 21:00:00 16.9 0 Calma 12 Sur 0 -- -- 38
2020-03-11 20:00:00 17.9 3 Sudoeste 19 Oeste 0 -- -- 33
2020-03-11 19:00:00 20 8 Sudoeste 26 Sur 0 -- -- 28
2020-03-11 18:00:00 21.6 12 Sudoeste 30 Oeste 0 -- -- 24
2020-03-11 17:00:00 23.1 10 Sudoeste 33 Oeste 0 -- -- 23
2020-03-11 16:00:00 23.5 10 Sudoeste 30 Oeste 0 -- -- 20
2020-03-11 15:00:00 23.6 8 Sudoeste 23 Sur 0 -- -- 23
2020-03-11 14:00:00 20.9 3 Norte 15 Norte 0 -- -- 37
2020-03-11 13:00:00 18.9 3 Nordeste 11 Este 0 -- -- 50
2020-03-11 12:00:00 16.8 5 Este 13 Este 0 -- -- 57
2020-03-11 11:00:00 13.5 6 Norte 10 Norte 0 -- -- 66
2020-03-11 10:00:00 12 0 Calma 6 Oeste 0 -- -- 66
2020-03-11 09:00:00 8.8 0 Calma 8 Oeste 0 -- -- 78
2020-03-11 08:00:00 4.8 3 Sudoeste 9 Oeste 0 -- -- 85
2020-03-11 07:00:00 4.7 4 Sudoeste 11 Oeste 0 -- -- 84
2020-03-11 06:00:00 4.9 2 Sudoeste 10 Oeste 0 -- -- 86
2020-03-11 05:00:00 5.1 3 Sudoeste 10 Oeste 0 -- -- 86
2020-03-11 04:00:00 5.8 2 Sur 9 Sur 0 -- -- 86
2020-03-11 03:00:00 6.4 3 Sudoeste 7 Oeste 0 -- -- 86
2020-03-11 02:00:00 6.7 0 Calma 9 Sur 0 -- -- 86
2020-03-11 01:00:00 7.7 0 Calma 5 Este 0 -- -- 83
2020-03-11 00:00:00 8.9 0 Calma 19 Este 0 -- -- 79
2020-03-10 23:00:00 10.1 14 Este 17 Este 0 -- -- 74
2020-03-10 22:00:00 12.2 2 Norte 10 Oeste 0 -- -- 59
2020-03-10 21:00:00 12.4 0 Calma 11 Sur 0 -- -- 58
2020-03-10 20:00:00 14 4 Oeste 16 Oeste 0 -- -- 54
2020-03-10 19:00:00 15.5 9 Oeste 21 Oeste 0 -- -- 48
2020-03-10 18:00:00 19.1 12 Oeste 30 Oeste 0 -- -- 38
2020-03-10 17:00:00 20.2 10 Sudoeste 27 Oeste 0 -- -- 37
2020-03-10 16:00:00 20.4 9 Sudoeste 27 Sur 0 -- -- 37
2020-03-10 15:00:00 20.4 9 Sudoeste 25 Sur 0 -- -- 37
2020-03-10 14:00:00 19.3 9 Oeste 32 Oeste 0 -- -- 37
2020-03-10 13:00:00 18.4 17 Oeste 27 Oeste 0 -- -- 40
2020-03-10 12:00:00 17.9 9 Oeste 29 Oeste 0 -- -- 38
2020-03-10 11:00:00 15.7 10 Sudoeste 35 Sur 0 -- -- 41
2020-03-10 10:00:00 14.4 8 Sudoeste 24 Oeste 0 -- -- 42
2020-03-10 09:00:00 12.5 7 Oeste 23 Sur 0 -- -- 45
2020-03-10 08:00:00 9.1 6 Oeste 13 Oeste 0 -- -- 49
2020-03-10 07:00:00 9.6 5 Sudoeste 12 Oeste 0 -- -- 47
2020-03-10 06:00:00 9.3 4 Sudoeste 10 Sur 0 -- -- 49
2020-03-10 05:00:00 8.6 3 Sudoeste 10 Oeste 0 -- -- 55
2020-03-10 04:00:00 7.3 3 Oeste 9 Oeste 0 -- -- 63
2020-03-10 03:00:00 4.9 0 Calma 14 Sur 0 -- -- 71
2020-03-10 02:00:00 4.5 2 Noroeste 8 Norte 0 -- -- 73
2020-03-10 01:00:00 6 2 Sudoeste 11 Sur 0 -- -- 63
2020-03-10 00:00:00 6.4 4 Sudoeste 14 Oeste 0 -- -- 64
2020-03-09 23:00:00 5.4 2 Sudoeste 10 Oeste 0 -- -- 76
2020-03-09 22:00:00 4.3 5 Sur 10 Sur 0 -- -- 80
2020-03-09 21:00:00 5 3 Sudoeste 8 Oeste 0 -- -- 77
2020-03-09 20:00:00 6.9 0 Calma 6 Norte 0 -- -- 69
2020-03-09 19:00:00 8.7 5 Norte 14 Norte 0 -- -- 62
2020-03-09 18:00:00 9.6 7 Noroeste 17 Norte 0 -- -- 57
2020-03-09 17:00:00 9.9 10 Noroeste 19 Noroeste 0 -- -- 57
2020-03-09 16:00:00 10.4 12 Noroeste 27 Norte 0 -- -- 52
2020-03-09 15:00:00 10.1 10 Noroeste 28 Oeste 0 -- -- 53
2020-03-09 14:00:00 10.8 17 Noroeste 31 Norte 0 -- -- 55
2020-03-09 13:00:00 10.5 16 Noroeste 28 Oeste 0 -- -- 59
2020-03-09 12:00:00 9.8 14 Noroeste 28 Norte 0 -- -- 63
2020-03-09 11:00:00 8.3 12 Noroeste 26 Norte 0 -- -- 65
2020-03-09 10:00:00 7.6 10 Oeste 20 Oeste 0 -- -- 69
2020-03-09 09:00:00 6.6 10 Oeste 23 Oeste 0 -- -- 73
2020-03-09 08:00:00 5.9 9 Oeste 13 Oeste 0 -- -- 78
2020-03-09 07:00:00 6 4 Oeste 20 Oeste 0 -- -- 79
2020-03-09 06:00:00 5.6 5 Oeste 18 Oeste 0 -- -- 83
2020-03-09 05:00:00 6 9 Oeste 21 Oeste 0 -- -- 82
2020-03-09 04:00:00 6.3 9 Oeste 17 Norte 0 -- -- 84
2020-03-09 03:00:00 7 7 Noroeste 13 Oeste 0 -- -- 83
2020-03-09 02:00:00 7.4 3 Sudoeste 9 Sur 0 -- -- 83
2020-03-09 01:00:00 7.5 0 Calma 18 Norte 0 -- -- 83
2020-03-09 00:00:00 7.9 7 Norte 16 Oeste 0 -- -- 86